createdAt,value
2019-01-25T00:00:29.324Z,94.80
2019-01-25T00:01:29.309Z,96.80
2019-01-25T00:02:29.293Z,101.10
2019-01-25T00:03:29.279Z,101.30
2019-01-25T00:04:29.260Z,97.20
2019-01-25T00:05:29.245Z,95.70
2019-01-25T00:06:29.235Z,93.70
2019-01-25T00:07:29.222Z,92.50
2019-01-25T00:08:29.202Z,97.10
2019-01-25T00:09:29.188Z,101.80
2019-01-25T00:10:29.175Z,102.60
2019-01-25T00:11:29.160Z,99.40
2019-01-25T00:12:29.150Z,94.30
2019-01-25T00:13:29.138Z,91.50
2019-01-25T00:14:29.126Z,96.00
2019-01-25T00:15:29.108Z,91.60
2019-01-25T00:16:29.098Z,100.30
2019-01-25T00:17:29.074Z,98.70
2019-01-25T00:18:29.058Z,99.50
2019-01-25T00:19:29.043Z,90.40
2019-01-25T00:20:29.033Z,96.70
2019-01-25T00:21:29.019Z,98.70
2019-01-25T00:22:29.001Z,92.10
2019-01-25T00:23:28.985Z,95.50
2019-01-25T00:24:28.976Z,101.00
2019-01-25T00:25:28.962Z,106.20
2019-01-25T00:26:28.948Z,104.70
2019-01-25T00:27:28.934Z,98.80
2019-01-25T00:28:28.913Z,106.70
2019-01-25T00:29:28.901Z,104.40
2019-01-25T00:30:28.888Z,95.30
2019-01-25T00:31:28.876Z,97.50
2019-01-25T00:32:28.858Z,101.20
2019-01-25T00:33:28.841Z,95.90
2019-01-25T00:34:28.827Z,100.80
2019-01-25T00:35:28.811Z,102.90
2019-01-25T00:36:28.802Z,94.10
2019-01-25T00:37:28.787Z,101.50
2019-01-25T00:38:28.768Z,93.90
2019-01-25T00:39:28.754Z,93.20
2019-01-25T00:40:28.743Z,102.30
2019-01-25T00:41:28.729Z,97.30
2019-01-25T00:42:28.714Z,90.80
2019-01-25T00:43:28.705Z,96.70
2019-01-25T00:44:28.679Z,95.40
2019-01-25T00:45:28.665Z,95.10
2019-01-25T00:46:28.651Z,95.60
2019-01-25T00:47:28.637Z,98.10
2019-01-25T00:48:28.626Z,95.60
2019-01-25T00:49:28.612Z,103.20
2019-01-25T00:50:28.597Z,97.60
2019-01-25T00:51:28.584Z,96.40
2019-01-25T00:52:28.564Z,99.50
2019-01-25T00:53:28.590Z,94.40
2019-01-25T00:54:28.539Z,102.50
2019-01-25T00:55:28.528Z,98.70
2019-01-25T00:56:28.506Z,103.30
2019-01-25T00:57:28.490Z,94.30
2019-01-25T00:58:28.477Z,103.80
2019-01-25T00:59:28.461Z,99.90
2019-01-25T01:00:28.452Z,101.50
2019-01-25T01:01:28.436Z,102.30
2019-01-25T01:02:28.421Z,97.50
2019-01-25T01:03:28.410Z,101.20
2019-01-25T01:04:28.388Z,88.90
2019-01-25T01:05:28.374Z,97.40
2019-01-25T01:06:28.359Z,108.10
2019-01-25T01:07:28.346Z,100.40
2019-01-25T01:08:28.339Z,102.50
2019-01-25T01:09:28.321Z,104.30
2019-01-25T01:10:28.301Z,96.80
2019-01-25T01:11:28.288Z,103.70
2019-01-25T01:12:28.277Z,102.40
2019-01-25T01:13:28.262Z,108.10
2019-01-25T01:14:28.249Z,107.30
2019-01-25T01:15:28.237Z,101.50
2019-01-25T01:16:28.214Z,102.10
2019-01-25T01:17:28.199Z,103.70
2019-01-25T01:18:28.185Z,97.40
2019-01-25T01:19:28.171Z,94.50
2019-01-25T01:20:28.161Z,102.90
2019-01-25T01:21:28.146Z,92.20
2019-01-25T01:22:28.133Z,100.60
2019-01-25T01:23:28.119Z,95.70
2019-01-25T01:24:28.098Z,97.70
2019-01-25T01:25:28.085Z,102.80
2019-01-25T01:26:28.075Z,101.80
2019-01-25T01:27:28.061Z,100.90
2019-01-25T01:28:28.041Z,99.40
2019-01-25T01:29:28.030Z,98.90
2019-01-25T01:30:28.012Z,103.00
2019-01-25T01:31:27.999Z,100.30
2019-01-25T01:32:27.987Z,100.40
2019-01-25T01:33:27.974Z,107.80
2019-01-25T01:34:27.960Z,106.10
2019-01-25T01:35:27.946Z,98.80
2019-01-25T01:36:27.933Z,100.90
2019-01-25T01:37:27.912Z,102.20
2019-01-25T01:38:27.897Z,109.80
2019-01-25T01:39:27.884Z,101.30
2019-01-25T01:40:27.874Z,97.40
2019-01-25T01:41:27.858Z,98.90
2019-01-25T01:42:27.843Z,98.10
2019-01-25T01:43:27.826Z,96.40
2019-01-25T01:44:27.817Z,103.40
2019-01-25T01:45:27.800Z,103.80
2019-01-25T01:46:27.788Z,100.40
2019-01-25T01:47:27.774Z,95.70
2019-01-25T01:48:27.754Z,102.90
2019-01-25T01:49:27.740Z,97.70
2019-01-25T01:50:27.726Z,100.60
2019-01-25T01:51:27.711Z,101.20
2019-01-25T01:52:27.701Z,101.60
2019-01-25T01:53:27.687Z,101.10
2019-01-25T01:54:27.675Z,106.40
2019-01-25T01:55:27.658Z,98.80
2019-01-25T01:56:27.647Z,98.00
2019-01-25T01:57:27.624Z,101.30
2019-01-25T01:58:27.614Z,111.50
2019-01-25T01:59:27.600Z,98.30
2019-01-25T02:00:27.582Z,98.30
2019-01-25T02:01:27.569Z,102.40
2019-01-25T02:02:27.553Z,102.00
2019-01-25T02:03:27.539Z,96.60
2019-01-25T02:04:27.529Z,97.30
2019-01-25T02:05:27.516Z,102.70
2019-01-25T02:06:27.501Z,98.90
2019-01-25T02:07:27.487Z,93.30
2019-01-25T02:08:27.467Z,104.80
2019-01-25T02:09:27.452Z,102.70
2019-01-25T02:10:29.668Z,99.30
2019-01-25T02:11:27.424Z,92.70
2019-01-25T02:12:27.419Z,98.30
2019-01-25T02:13:27.399Z,96.70
2019-01-25T02:14:27.380Z,96.10
2019-01-25T02:15:27.367Z,97.80
2019-01-25T02:16:27.356Z,99.50
2019-01-25T02:17:27.342Z,97.80
2019-01-25T02:18:27.329Z,96.50
2019-01-25T02:19:27.326Z,98.90
2019-01-25T02:20:27.294Z,94.50
2019-01-25T02:21:27.280Z,96.70
2019-01-25T02:22:27.267Z,98.90
2019-01-25T02:23:27.252Z,97.00
2019-01-25T02:24:27.242Z,101.30
2019-01-25T02:25:27.228Z,102.10
2019-01-25T02:26:27.215Z,98.20
2019-01-25T02:27:27.198Z,104.10
2019-01-25T02:28:27.179Z,106.20
2019-01-25T02:29:27.165Z,97.20
2019-01-25T02:30:27.171Z,97.40
2019-01-25T02:31:27.142Z,100.50
2019-01-25T02:32:27.124Z,97.90
2019-01-25T02:33:27.109Z,98.90
2019-01-25T02:34:27.096Z,95.20
2019-01-25T02:35:27.080Z,96.90
2019-01-25T02:36:27.070Z,101.40
2019-01-25T02:37:27.056Z,99.70
2019-01-25T02:38:27.040Z,96.80
2019-01-25T02:39:27.031Z,97.40
2019-01-25T02:40:27.008Z,98.80
2019-01-25T02:41:26.993Z,98.90
2019-01-25T02:42:26.979Z,93.60
2019-01-25T02:43:26.964Z,96.90
2019-01-25T02:44:26.954Z,100.60
2019-01-25T02:45:26.941Z,95.80
2019-01-25T02:46:26.922Z,102.80
2019-01-25T02:47:26.908Z,103.80
2019-01-25T02:48:26.898Z,102.40
2019-01-25T02:49:26.884Z,99.40
2019-01-25T02:50:26.868Z,97.80
2019-01-25T02:51:26.853Z,95.40
2019-01-25T02:52:26.835Z,97.40
2019-01-25T02:53:26.820Z,103.00
2019-01-25T02:54:26.807Z,99.00
2019-01-25T02:55:26.792Z,94.00
2019-01-25T02:56:26.782Z,95.50
2019-01-25T02:57:26.768Z,95.50
2019-01-25T02:58:26.754Z,98.10
2019-01-25T02:59:26.742Z,97.50
2019-01-25T03:00:26.725Z,97.20
2019-01-25T03:01:26.705Z,93.20
2019-01-25T03:02:26.698Z,94.90
2019-01-25T03:03:26.683Z,95.90
2019-01-25T03:04:26.663Z,101.00
2019-01-25T03:05:26.649Z,97.30
2019-01-25T03:06:26.636Z,96.90
2019-01-25T03:07:26.621Z,96.30
2019-01-25T03:08:26.611Z,96.80
2019-01-25T03:09:26.597Z,93.80
2019-01-25T03:10:29.087Z,92.50
2019-01-25T03:11:26.568Z,97.00
2019-01-25T03:12:26.548Z,97.70
2019-01-25T03:13:26.534Z,98.90
2019-01-25T03:14:26.521Z,96.90
2019-01-25T03:15:26.513Z,102.20
2019-01-25T03:16:26.498Z,100.70
2019-01-25T03:17:26.483Z,94.40
2019-01-25T03:18:26.464Z,96.40
2019-01-25T03:19:26.450Z,95.20
2019-01-25T03:20:26.459Z,92.40
2019-01-25T03:21:26.427Z,96.80
2019-01-25T03:22:26.412Z,100.10
2019-01-25T03:23:26.397Z,98.20
2019-01-25T03:24:26.380Z,102.10
2019-01-25T03:25:26.363Z,90.90
2019-01-25T03:26:26.351Z,98.90
2019-01-25T03:27:26.336Z,97.60
2019-01-25T03:28:26.326Z,97.30
2019-01-25T03:29:26.314Z,98.10
2019-01-25T03:30:26.309Z,95.60
2019-01-25T03:31:26.286Z,96.00
2019-01-25T03:32:26.273Z,97.10
2019-01-25T03:33:26.261Z,95.40
2019-01-25T03:34:26.241Z,105.80
2019-01-25T03:35:26.230Z,95.70
2019-01-25T03:36:26.216Z,97.80
2019-01-25T03:37:26.193Z,99.60
2019-01-25T03:38:26.179Z,98.60
2019-01-25T03:39:26.166Z,95.60
2019-01-25T03:40:26.155Z,97.90
2019-01-25T03:41:26.141Z,104.50
2019-01-25T03:42:26.130Z,96.70
2019-01-25T03:43:26.117Z,99.60
2019-01-25T03:44:26.095Z,103.70
2019-01-25T03:45:26.080Z,104.00
2019-01-25T03:46:26.066Z,103.50
2019-01-25T03:47:26.054Z,100.30
2019-01-25T03:48:26.044Z,102.40
2019-01-25T03:49:26.028Z,99.30
2019-01-25T03:50:26.011Z,99.60
2019-01-25T03:51:25.996Z,100.40
2019-01-25T03:52:25.987Z,94.50
2019-01-25T03:53:25.973Z,108.50
2019-01-25T03:54:25.972Z,103.40
2019-01-25T03:55:25.949Z,113.90
2019-01-25T03:56:25.926Z,104.40
2019-01-25T03:57:25.918Z,107.00
2019-01-25T03:58:25.901Z,107.70
2019-01-25T03:59:25.883Z,106.00
2019-01-25T04:00:25.874Z,100.50
2019-01-25T04:01:25.860Z,104.10
2019-01-25T04:02:25.844Z,102.50
2019-01-25T04:03:25.831Z,103.90
2019-01-25T04:04:25.848Z,97.60
2019-01-25T04:05:25.798Z,105.00
2019-01-25T04:06:25.788Z,99.00
2019-01-25T04:07:25.774Z,102.20
2019-01-25T04:08:25.754Z,103.20
2019-01-25T04:09:25.757Z,99.60
2019-01-25T04:10:25.726Z,100.80
2019-01-25T04:11:25.714Z,101.90
2019-01-25T04:12:25.705Z,100.80
2019-01-25T04:13:25.690Z,103.20
2019-01-25T04:14:25.676Z,106.50
2019-01-25T04:15:25.667Z,104.60
2019-01-25T04:16:25.641Z,95.00
2019-01-25T04:17:25.628Z,110.20
2019-01-25T04:18:25.615Z,98.00
2019-01-25T04:19:25.600Z,103.80
2019-01-25T04:20:25.590Z,112.00
2019-01-25T04:21:25.578Z,100.30
2019-01-25T04:22:25.557Z,111.50
2019-01-25T04:23:25.544Z,109.50
2019-01-25T04:24:25.536Z,102.60
2019-01-25T04:25:25.519Z,100.60
2019-01-25T04:26:25.508Z,107.30
2019-01-25T04:27:25.492Z,104.00
2019-01-25T04:28:25.473Z,113.90
2019-01-25T04:29:25.500Z,107.60
2019-01-25T04:30:25.450Z,107.00
2019-01-25T04:31:25.433Z,108.10
2019-01-25T04:32:25.423Z,112.70
2019-01-25T04:33:25.409Z,107.30
2019-01-25T04:34:25.394Z,110.00
2019-01-25T04:35:25.379Z,102.00
2019-01-25T04:36:25.362Z,104.80
2019-01-25T04:37:25.346Z,102.50
2019-01-25T04:38:25.337Z,103.80
2019-01-25T04:39:25.324Z,115.20
2019-01-25T04:40:25.351Z,112.00
2019-01-25T04:41:25.289Z,104.30
2019-01-25T04:42:25.276Z,114.30
2019-01-25T04:43:25.829Z,103.60
2019-01-25T04:44:25.336Z,113.00
2019-01-25T04:45:25.239Z,109.80
2019-01-25T04:46:25.229Z,104.30
2019-01-25T04:47:25.215Z,117.20
2019-01-25T04:48:25.189Z,113.40
2019-01-25T04:49:25.176Z,112.70
2019-01-25T04:50:25.182Z,102.80
2019-01-25T04:51:25.153Z,102.70
2019-01-25T04:52:25.139Z,108.20
2019-01-25T04:53:25.125Z,108.00
2019-01-25T04:54:25.105Z,100.20
2019-01-25T04:55:25.145Z,103.30
2019-01-25T04:56:25.081Z,97.80
2019-01-25T04:57:25.069Z,109.10
2019-01-25T04:58:25.137Z,105.00
2019-01-25T04:59:25.046Z,115.30
2019-01-25T05:00:25.023Z,116.10
2019-01-25T05:01:25.008Z,120.10
2019-01-25T05:02:24.994Z,100.80
2019-01-25T05:03:24.970Z,114.90
2019-01-25T05:04:24.959Z,114.20
2019-01-25T05:05:24.946Z,104.00
2019-01-25T05:06:24.932Z,94.00
2019-01-25T05:07:24.918Z,97.50
2019-01-25T05:08:24.899Z,91.10
2019-01-25T05:09:24.885Z,90.80
2019-01-25T05:10:24.886Z,92.30
2019-01-25T05:11:24.871Z,88.10
2019-01-25T05:12:24.842Z,95.40
2019-01-25T05:13:24.830Z,94.70
2019-01-25T05:14:24.816Z,83.10
2019-01-25T05:15:24.805Z,86.40
2019-01-25T05:16:24.791Z,82.50
2019-01-25T05:17:24.783Z,83.90
2019-01-25T05:18:24.765Z,75.00
2019-01-25T05:19:24.753Z,84.80
2019-01-25T05:20:24.737Z,73.30
2019-01-25T05:21:24.718Z,75.60
2019-01-25T05:22:24.711Z,74.90
2019-01-25T05:23:24.688Z,78.60
2019-01-25T05:24:24.679Z,77.00
2019-01-25T05:25:24.666Z,82.50
2019-01-25T05:26:24.652Z,76.50
2019-01-25T05:27:24.636Z,73.30
2019-01-25T05:28:24.622Z,83.50
2019-01-25T05:29:24.609Z,81.20
2019-01-25T05:30:24.598Z,93.20
2019-01-25T05:31:24.585Z,85.60
2019-01-25T05:32:24.563Z,96.40
2019-01-25T05:33:24.550Z,99.90
2019-01-25T05:34:24.536Z,98.70
2019-01-25T05:35:24.522Z,94.50
2019-01-25T05:36:24.512Z,89.70
2019-01-25T05:37:24.497Z,91.00
2019-01-25T05:38:24.485Z,90.40
2019-01-25T05:39:24.470Z,87.60
2019-01-25T05:40:24.451Z,85.20
2019-01-25T05:41:28.649Z,95.70
2019-01-25T05:42:24.431Z,86.00
2019-01-25T05:43:24.414Z,90.50
2019-01-25T05:44:24.397Z,86.40
2019-01-25T05:45:24.487Z,89.00
2019-01-25T05:46:24.368Z,93.20
2019-01-25T05:47:24.356Z,91.00
2019-01-25T05:48:24.347Z,87.60
2019-01-25T05:49:24.331Z,86.90
2019-01-25T05:50:24.316Z,94.90
2019-01-25T05:51:24.303Z,83.10
2019-01-25T05:52:24.286Z,86.90
2019-01-25T05:53:24.269Z,87.20
2019-01-25T05:54:24.256Z,89.20
2019-01-25T05:55:24.245Z,88.10
2019-01-25T05:56:24.237Z,86.20
2019-01-25T05:57:24.220Z,87.50
2019-01-25T05:58:24.202Z,87.10
2019-01-25T05:59:24.186Z,81.30
2019-01-25T06:00:24.177Z,83.30
2019-01-25T06:01:24.163Z,96.00
2019-01-25T06:02:24.148Z,93.90
2019-01-25T06:03:24.137Z,95.20
2019-01-25T06:04:24.115Z,94.80
2019-01-25T06:05:24.102Z,94.00
2019-01-25T06:06:24.089Z,89.20
2019-01-25T06:07:24.075Z,93.60
2019-01-25T06:08:24.064Z,89.90
2019-01-25T06:09:24.050Z,93.10
2019-01-25T06:10:24.039Z,96.70
2019-01-25T06:11:24.023Z,92.60
2019-01-25T06:12:24.008Z,85.40
2019-01-25T06:13:23.990Z,92.10
2019-01-25T06:14:23.997Z,93.90
2019-01-25T06:15:23.969Z,90.10
2019-01-25T06:16:23.949Z,91.30
2019-01-25T06:17:23.935Z,98.40
2019-01-25T06:18:23.921Z,98.00
2019-01-25T06:19:23.908Z,92.90
2019-01-25T06:20:23.897Z,101.00
2019-01-25T06:21:23.882Z,103.00
2019-01-25T06:22:23.869Z,104.90
2019-01-25T06:23:23.855Z,94.00
2019-01-25T06:24:23.837Z,107.70
2019-01-25T06:25:23.829Z,97.60
2019-01-25T06:26:23.809Z,105.90
2019-01-25T06:27:23.795Z,99.80
2019-01-25T06:28:23.786Z,115.50
2019-01-25T06:29:23.772Z,102.40
2019-01-25T06:30:23.753Z,101.90
2019-01-25T06:31:23.740Z,102.50
2019-01-25T06:32:23.733Z,99.20
2019-01-25T06:33:23.716Z,110.30
2019-01-25T06:34:23.701Z,107.30
2019-01-25T06:35:23.688Z,106.20
2019-01-25T06:36:23.670Z,117.70
2019-01-25T06:37:23.654Z,114.10
2019-01-25T06:38:23.641Z,118.10
2019-01-25T06:39:23.628Z,112.50
2019-01-25T06:40:23.617Z,126.70
2019-01-25T06:41:23.603Z,114.80
2019-01-25T06:42:23.591Z,115.20
2019-01-25T06:43:23.577Z,116.90
2019-01-25T06:44:23.557Z,116.40
2019-01-25T06:45:23.544Z,121.10
2019-01-25T06:46:23.535Z,117.20
2019-01-25T06:47:23.520Z,124.40
2019-01-25T06:48:23.501Z,116.70
2019-01-25T06:49:23.487Z,109.20
2019-01-25T06:50:23.472Z,116.50
2019-01-25T06:51:23.459Z,109.60
2019-01-25T06:52:23.449Z,118.40
2019-01-25T06:53:23.438Z,121.30
2019-01-25T06:54:23.422Z,120.00
2019-01-25T06:55:23.408Z,112.80
2019-01-25T06:56:23.389Z,123.30
2019-01-25T06:57:23.375Z,119.40
2019-01-25T06:58:23.362Z,121.80
2019-01-25T06:59:23.348Z,123.10
2019-01-25T07:00:23.337Z,120.60
2019-01-25T07:01:23.322Z,118.60
2019-01-25T07:02:23.305Z,124.90
2019-01-25T07:03:23.290Z,121.40
2019-01-25T07:04:23.281Z,121.90
2019-01-25T07:05:23.267Z,124.20
2019-01-25T07:06:23.254Z,129.00
2019-01-25T07:07:23.240Z,128.50
2019-01-25T07:08:23.219Z,115.90
2019-01-25T07:09:23.207Z,134.40
2019-01-25T07:10:23.191Z,128.20
2019-01-25T07:11:23.179Z,116.50
2019-01-25T07:12:23.169Z,124.60
2019-01-25T07:13:23.153Z,124.10
2019-01-25T07:14:23.145Z,126.60
2019-01-25T07:15:23.124Z,121.30
2019-01-25T07:16:23.105Z,123.70
2019-01-25T07:17:23.091Z,130.40
2019-01-25T07:18:23.081Z,120.10
2019-01-25T07:19:23.066Z,120.30
2019-01-25T07:20:23.048Z,124.20
2019-01-25T07:21:23.035Z,128.10
2019-01-25T07:22:23.020Z,127.30
2019-01-25T07:23:23.007Z,119.90
2019-01-25T07:24:22.997Z,132.30
2019-01-25T07:25:22.983Z,132.50
2019-01-25T07:26:22.971Z,127.90
2019-01-25T07:27:22.953Z,125.80
2019-01-25T07:28:22.934Z,129.30
2019-01-25T07:29:22.922Z,131.00
2019-01-25T07:30:22.906Z,139.00
2019-01-25T07:31:22.893Z,133.20
2019-01-25T07:32:22.887Z,127.70
2019-01-25T07:33:22.917Z,118.20
2019-01-25T07:34:22.880Z,129.70
2019-01-25T07:35:22.841Z,137.20
2019-01-25T07:36:22.824Z,130.90
2019-01-25T07:37:22.812Z,122.10
2019-01-25T07:38:22.819Z,130.10
2019-01-25T07:39:22.781Z,127.40
2019-01-25T07:40:22.761Z,129.50
2019-01-25T07:41:22.748Z,136.30
2019-01-25T07:42:22.734Z,126.50
2019-01-25T07:43:22.749Z,123.70
2019-01-25T07:44:22.741Z,131.30
2019-01-25T07:45:22.694Z,130.10
2019-01-25T07:46:22.680Z,128.30
2019-01-25T07:47:22.665Z,126.10
2019-01-25T07:48:22.702Z,127.70
2019-01-25T07:49:22.637Z,128.60
2019-01-25T07:50:22.623Z,124.40
2019-01-25T07:51:22.609Z,119.80
2019-01-25T07:52:22.588Z,131.40
2019-01-25T07:53:22.575Z,124.10
2019-01-25T07:54:22.583Z,116.10
2019-01-25T07:55:22.579Z,129.50
2019-01-25T07:56:22.542Z,122.60
2019-01-25T07:57:22.538Z,129.20
2019-01-25T07:58:22.555Z,131.50
2019-01-25T07:59:22.504Z,126.20
2019-01-25T08:00:22.489Z,133.00
2019-01-25T08:01:22.462Z,128.50
2019-01-25T08:02:22.447Z,135.80
2019-01-25T08:03:22.432Z,126.30
2019-01-25T08:04:22.437Z,131.80
2019-01-25T08:05:22.418Z,126.80
2019-01-25T08:06:22.389Z,134.50
2019-01-25T08:07:22.375Z,142.30
2019-01-25T08:08:22.365Z,127.40
2019-01-25T08:09:22.364Z,131.50
2019-01-25T08:10:22.349Z,132.10
2019-01-25T08:11:22.320Z,125.10
2019-01-25T08:12:22.328Z,137.60
2019-01-25T08:13:22.286Z,125.60
2019-01-25T08:14:22.272Z,132.90
2019-01-25T08:15:22.355Z,138.50
2019-01-25T08:16:22.268Z,139.60
2019-01-25T08:17:22.234Z,132.50
2019-01-25T08:18:22.220Z,131.10
2019-01-25T08:19:22.256Z,140.40
2019-01-25T08:20:22.237Z,138.60
2019-01-25T08:21:22.171Z,138.80
2019-01-25T08:22:22.164Z,141.50
2019-01-25T08:23:22.153Z,129.60
2019-01-25T08:24:22.154Z,136.70
2019-01-25T08:25:22.115Z,144.80
2019-01-25T08:26:22.100Z,137.40
2019-01-25T08:27:22.126Z,136.30
2019-01-25T08:28:22.113Z,132.70
2019-01-25T08:29:27.990Z,138.50
2019-01-25T08:30:22.126Z,132.40
2019-01-25T08:31:22.036Z,133.60
2019-01-25T08:32:22.014Z,135.80
2019-01-25T08:33:22.139Z,142.30
2019-01-25T08:34:21.987Z,134.10
2019-01-25T08:35:22.014Z,136.20
2019-01-25T08:36:22.013Z,132.20
2019-01-25T08:37:21.957Z,135.60
2019-01-25T08:38:21.929Z,138.60
2019-01-25T08:39:21.986Z,152.40
2019-01-25T08:40:21.937Z,132.80
2019-01-25T08:41:21.942Z,138.30
2019-01-25T08:42:21.893Z,137.90
2019-01-25T08:43:21.862Z,140.50
2019-01-25T08:44:21.873Z,141.80
2019-01-25T08:45:21.829Z,140.70
2019-01-25T08:46:21.818Z,139.20
2019-01-25T08:47:21.801Z,148.00
2019-01-25T08:48:21.807Z,148.40
2019-01-25T08:49:21.777Z,144.20
2019-01-25T08:50:21.873Z,155.70
2019-01-25T08:51:21.779Z,148.00
2019-01-25T08:52:21.795Z,146.50
2019-01-25T08:53:21.754Z,138.90
2019-01-25T08:54:21.759Z,134.50
2019-01-25T08:55:21.705Z,147.70
2019-01-25T08:56:21.706Z,133.60
2019-01-25T08:57:21.669Z,136.40
2019-01-25T08:58:21.680Z,135.20
2019-01-25T08:59:21.631Z,139.20
2019-01-25T09:00:21.623Z,131.90
2019-01-25T09:01:21.606Z,141.90
2019-01-25T09:02:21.593Z,127.50
2019-01-25T09:03:21.583Z,141.50
2019-01-25T09:04:21.559Z,141.50
2019-01-25T09:05:21.553Z,143.80
2019-01-25T09:06:21.532Z,137.80
2019-01-25T09:07:21.516Z,137.10
2019-01-25T09:08:21.506Z,144.60
2019-01-25T09:09:21.492Z,146.50
2019-01-25T09:10:21.475Z,135.30
2019-01-25T09:11:21.460Z,136.10
2019-01-25T09:12:23.412Z,142.20
2019-01-25T09:13:21.438Z,127.20
2019-01-25T09:14:21.423Z,141.30
2019-01-25T09:15:22.607Z,129.20
2019-01-25T09:16:21.390Z,129.60
2019-01-25T09:17:21.376Z,134.60
2019-01-25T09:18:21.370Z,133.50
2019-01-25T09:19:21.348Z,132.00
2019-01-25T09:20:21.340Z,126.80
2019-01-25T09:21:21.324Z,129.30
2019-01-25T09:22:21.310Z,137.40
2019-01-25T09:23:21.300Z,135.10
2019-01-25T09:24:21.277Z,129.40
2019-01-25T09:25:21.262Z,130.90
2019-01-25T09:26:21.255Z,134.10
2019-01-25T09:27:21.242Z,133.20
2019-01-25T09:28:21.222Z,131.50
2019-01-25T09:29:21.208Z,131.60
2019-01-25T09:30:21.194Z,138.50
2019-01-25T09:31:21.181Z,132.10
2019-01-25T09:32:21.171Z,134.60
2019-01-25T09:33:21.217Z,138.90
2019-01-25T09:34:21.143Z,139.80
2019-01-25T09:35:21.132Z,134.20
2019-01-25T09:36:21.110Z,135.50
2019-01-25T09:37:21.096Z,137.50
2019-01-25T09:38:21.086Z,140.80
2019-01-25T09:39:21.071Z,124.90
2019-01-25T09:40:21.059Z,127.60
2019-01-25T09:41:21.045Z,128.30
2019-01-25T09:42:21.030Z,142.40
2019-01-25T09:43:21.017Z,132.20
2019-01-25T09:44:21.004Z,132.10
2019-01-25T09:45:21.032Z,124.10
2019-01-25T09:46:20.978Z,137.80
2019-01-25T09:47:20.965Z,131.10
2019-01-25T09:48:20.944Z,130.10
2019-01-25T09:49:20.931Z,127.00
2019-01-25T09:50:20.977Z,129.00
2019-01-25T09:51:20.903Z,133.30
2019-01-25T09:52:20.897Z,135.30
2019-01-25T09:53:20.881Z,134.90
2019-01-25T09:54:20.867Z,124.10
2019-01-25T09:55:20.852Z,133.60
2019-01-25T09:56:20.837Z,126.30
2019-01-25T09:57:20.821Z,125.40
2019-01-25T09:58:20.811Z,120.30
2019-01-25T09:59:20.799Z,129.50
2019-01-25T10:00:20.780Z,127.60
2019-01-25T10:01:20.765Z,133.30
2019-01-25T10:02:20.753Z,140.30
2019-01-25T10:03:20.742Z,124.70
2019-01-25T10:04:20.730Z,135.20
2019-01-25T10:05:20.717Z,127.50
2019-01-25T10:06:20.703Z,142.30
2019-01-25T10:07:20.690Z,135.10
2019-01-25T10:08:20.678Z,137.00
2019-01-25T10:09:20.658Z,139.20
2019-01-25T10:10:21.270Z,127.50
2019-01-25T10:11:20.631Z,128.70
2019-01-25T10:12:20.624Z,140.40
2019-01-25T10:13:20.607Z,122.90
2019-01-25T10:14:20.590Z,134.00
2019-01-25T10:15:20.577Z,127.70
2019-01-25T10:16:20.568Z,138.50
2019-01-25T10:17:20.554Z,130.30
2019-01-25T10:18:24.677Z,136.50
2019-01-25T10:19:20.528Z,137.00
2019-01-25T10:20:20.510Z,131.10
2019-01-25T10:21:20.496Z,132.50
2019-01-25T10:22:20.483Z,130.90
2019-01-25T10:23:20.473Z,130.70
2019-01-25T10:24:20.464Z,132.80
2019-01-25T10:25:20.449Z,137.40
2019-01-25T10:26:20.436Z,135.60
2019-01-25T10:27:20.422Z,127.90
2019-01-25T10:28:20.403Z,134.60
2019-01-25T10:29:20.390Z,139.50
2019-01-25T10:30:20.382Z,135.30
2019-01-25T10:31:20.369Z,138.90
2019-01-25T10:32:20.350Z,135.30
2019-01-25T10:33:20.338Z,125.80
2019-01-25T10:34:20.325Z,124.30
2019-01-25T10:35:20.312Z,141.90
2019-01-25T10:36:20.303Z,133.20
2019-01-25T10:37:20.293Z,139.00
2019-01-25T10:38:20.277Z,146.20
2019-01-25T10:39:20.264Z,142.30
2019-01-25T10:40:20.251Z,131.10
2019-01-25T10:41:20.231Z,137.80
2019-01-25T10:42:20.221Z,144.50
2019-01-25T10:43:20.212Z,143.10
2019-01-25T10:44:20.200Z,141.70
2019-01-25T10:45:20.186Z,133.00
2019-01-25T10:46:20.169Z,134.00
2019-01-25T10:47:20.158Z,134.50
2019-01-25T10:48:20.147Z,125.90
2019-01-25T10:49:20.139Z,120.80
2019-01-25T10:50:20.123Z,121.10
2019-01-25T10:51:20.109Z,118.80
2019-01-25T10:52:20.091Z,118.50
2019-01-25T10:53:20.079Z,110.10
2019-01-25T10:54:20.066Z,111.40
2019-01-25T10:55:20.054Z,109.10
2019-01-25T10:56:20.046Z,119.30
2019-01-25T10:57:20.031Z,127.50
2019-01-25T10:58:20.020Z,111.70
2019-01-25T10:59:20.018Z,108.80
2019-01-25T11:00:19.990Z,113.20
2019-01-25T11:01:19.979Z,107.70
2019-01-25T11:02:19.971Z,113.20
2019-01-25T11:03:19.959Z,108.50
2019-01-25T11:04:19.939Z,107.10
2019-01-25T11:05:19.928Z,117.90
2019-01-25T11:06:19.916Z,107.70
2019-01-25T11:07:19.903Z,106.00
2019-01-25T11:08:19.895Z,100.60
2019-01-25T11:09:19.886Z,105.40
2019-01-25T11:10:19.871Z,107.90
2019-01-25T11:11:19.859Z,115.40
2019-01-25T11:12:19.841Z,103.40
2019-01-25T11:13:19.828Z,100.70
2019-01-25T11:14:19.817Z,96.70
2019-01-25T11:15:19.805Z,102.90
2019-01-25T11:16:19.796Z,98.10
2019-01-25T11:17:19.784Z,102.10
2019-01-25T11:18:19.769Z,99.10
2019-01-25T11:19:19.755Z,94.30
2019-01-25T11:20:19.752Z,91.60
2019-01-25T11:21:19.736Z,90.50
2019-01-25T11:22:19.732Z,91.20
2019-01-25T11:23:19.719Z,79.70
2019-01-25T11:24:19.695Z,87.80
2019-01-25T11:25:19.686Z,81.90
2019-01-25T11:26:19.672Z,91.30
2019-01-25T11:27:19.660Z,85.30
2019-01-25T11:28:19.653Z,90.30
2019-01-25T11:29:19.640Z,91.70
2019-01-25T11:30:19.627Z,94.20
2019-01-25T11:31:19.614Z,93.80
2019-01-25T11:32:19.599Z,89.90
2019-01-25T11:33:19.586Z,82.40
2019-01-25T11:34:19.579Z,85.20
2019-01-25T11:35:19.567Z,84.90
2019-01-25T11:36:19.550Z,83.70
2019-01-25T11:37:19.538Z,92.00
2019-01-25T11:38:19.527Z,83.40
2019-01-25T11:39:19.515Z,75.10
2019-01-25T11:40:19.507Z,78.50
2019-01-25T11:41:19.496Z,74.40
2019-01-25T11:42:19.482Z,71.00
2019-01-25T11:43:19.470Z,68.50
2019-01-25T11:44:19.457Z,69.40
2019-01-25T11:45:19.441Z,69.40
2019-01-25T11:46:19.428Z,68.20
2019-01-25T11:47:19.421Z,63.60
2019-01-25T11:48:19.409Z,57.40
2019-01-25T11:49:19.397Z,56.10
2019-01-25T11:50:19.380Z,63.60
2019-01-25T11:51:20.022Z,55.90
2019-01-25T11:52:19.360Z,55.80
2019-01-25T11:53:19.349Z,54.80
2019-01-25T11:54:19.337Z,57.60
2019-01-25T11:55:19.325Z,52.10
2019-01-25T11:56:19.308Z,56.90
2019-01-25T11:57:20.807Z,55.10
2019-01-25T11:58:19.285Z,51.00
2019-01-25T11:59:19.273Z,57.40
2019-01-25T12:00:19.264Z,45.50
2019-01-25T12:01:19.253Z,52.10
2019-01-25T12:02:21.044Z,48.40
2019-01-25T12:03:19.229Z,49.00
2019-01-25T12:04:19.211Z,45.70
2019-01-25T12:05:19.199Z,46.80
2019-01-25T12:06:19.193Z,43.40
2019-01-25T12:07:19.182Z,50.80
2019-01-25T12:08:19.165Z,43.40
2019-01-25T12:09:19.154Z,44.80
2019-01-25T12:10:19.144Z,41.60
2019-01-25T12:11:19.131Z,43.20
2019-01-25T12:12:19.455Z,43.50
2019-01-25T12:13:19.112Z,45.20
2019-01-25T12:14:19.105Z,41.70
2019-01-25T12:15:19.087Z,41.70
2019-01-25T12:16:19.071Z,42.40
2019-01-25T12:17:19.089Z,41.30
2019-01-25T12:18:19.128Z,45.50
2019-01-25T12:19:19.037Z,44.20
2019-01-25T12:20:19.029Z,40.00
2019-01-25T12:21:20.647Z,42.00
2019-01-25T12:22:19.002Z,42.90
2019-01-25T12:23:18.993Z,36.50
2019-01-25T12:24:18.983Z,33.90
2019-01-25T12:25:18.973Z,30.50
2019-01-25T12:26:18.961Z,32.10
2019-01-25T12:27:18.949Z,28.00
2019-01-25T12:28:18.933Z,30.80
2019-01-25T12:29:19.005Z,31.80
2019-01-25T12:30:18.911Z,30.30
2019-01-25T12:31:18.900Z,28.20
2019-01-25T12:32:18.891Z,33.60
2019-01-25T12:33:18.882Z,27.90
2019-01-25T12:34:18.872Z,26.70
2019-01-25T12:35:18.860Z,31.80
2019-01-25T12:36:18.842Z,28.60
2019-01-25T12:37:18.831Z,30.70
2019-01-25T12:38:18.825Z,29.20